Time,TemperatureF,DewpointF,PressureIn,WindDirection,WindDirectionDegrees,WindSpeedMPH,WindSpeedGustMPH,Humidity,HourlyPrecipIn,Conditions,Clouds,dailyrainin,SoftwareType,DateUTC
2013-02-06 00:00:00,41.0,38.8,30.16,NE,55,0.0,0.0,92,0.00,CLR,,0.00,WeatherDisplay:10.37,2013-02-06 08:00:00,
2013-02-06 00:05:00,40.8,38.6,30.16,NE,55,0.0,0.0,92,0.00,CLR,,0.00,WeatherDisplay:10.37,2013-02-06 08:05:00,
2013-02-06 00:10:00,40.7,38.5,30.17,NE,55,0.0,0.0,92,0.00,CLR,,0.00,WeatherDisplay:10.37,2013-02-06 08:10:00,
2013-02-06 00:15:00,40.5,38.3,30.17,NE,55,0.0,0.0,92,0.00,CLR,,0.00,WeatherDisplay:10.37,2013-02-06 08:15:00,
2013-02-06 00:20:00,40.3,38.1,30.17,NE,55,0.0,0.0,92,0.00,CLR,,0.00,WeatherDisplay:10.37,2013-02-06 08:20:00,
2013-02-06 00:25:00,40.1,37.9,30.17,NE,55,0.0,0.0,92,0.00,CLR,,0.00,WeatherDisplay:10.37,2013-02-06 08:25:00,
2013-02-06 00:30:00,39.9,37.7,30.17,NE,55,0.0,0.0,92,0.00,CLR,,0.00,WeatherDisplay:10.37,2013-02-06 08:30:00,
2013-02-06 00:35:00,39.7,37.5,30.17,NE,55,1.1,1.1,92,0.00,CLR,,0.00,WeatherDisplay:10.37,2013-02-06 08:35:00,
2013-02-06 00:40:00,39.5,37.3,30.17,NE,55,0.0,0.0,92,0.00,CLR,,0.00,WeatherDisplay:10.37,2013-02-06 08:40:00,
2013-02-06 00:45:00,39.4,37.2,30.17,NE,55,0.0,0.0,92,0.00,CLR,,0.00,WeatherDisplay:10.37,2013-02-06 08:45:00,
2013-02-06 00:50:00,39.2,37.1,30.17,NE,55,0.0,0.0,92,0.00,CLR,,0.00,WeatherDisplay:10.37,2013-02-06 08:50:00,
2013-02-06 00:55:00,39.0,36.9,30.17,NE,55,0.0,0.0,92,0.00,CLR,,0.00,WeatherDisplay:10.37,2013-02-06 08:55:00,
2013-02-06 01:00:00,38.8,36.7,30.17,NE,55,0.0,0.0,92,0.00,CLR,,0.00,WeatherDisplay:10.37,2013-02-06 09:00:00,
2013-02-06 01:05:00,38.6,36.5,30.17,NE,55,0.0,0.0,92,0.00,CLR,,0.00,WeatherDisplay:10.37,2013-02-06 09:05:00,
2013-02-06 01:10:00,38.4,36.3,30.16,NE,55,0.0,0.0,92,0.00,CLR,,0.00,WeatherDisplay:10.37,2013-02-06 09:10:00,
2013-02-06 01:15:00,38.3,36.2,30.16,NE,55,0.0,0.0,92,0.00,CLR,,0.00,WeatherDisplay:10.37,2013-02-06 09:15:00,
2013-02-06 01:20:00,38.1,36.0,30.16,NE,55,0.0,0.0,92,0.00,CLR,,0.00,WeatherDisplay:10.37,2013-02-06 09:20:00,
2013-02-06 01:26:00,37.9,35.8,30.17,NE,55,0.0,0.0,92,0.00,CLR,,0.00,WeatherDisplay:10.37,2013-02-06 09:26:00,
2013-02-06 01:31:00,37.7,35.6,30.16,NE,55,0.0,0.0,92,0.00,CLR,,0.00,WeatherDisplay:10.37,2013-02-06 09:31:00,
2013-02-06 01:36:00,37.6,35.5,30.17,NE,55,0.0,0.0,92,0.00,CLR,,0.00,WeatherDisplay:10.37,2013-02-06 09:36:00,
2013-02-06 01:41:00,37.5,35.4,30.16,NE,55,0.0,0.0,92,0.00,CLR,,0.00,WeatherDisplay:10.37,2013-02-06 09:41:00,
2013-02-06 01:46:00,37.3,35.2,30.16,NE,55,0.0,0.0,92,0.00,CLR,,0.00,WeatherDisplay:10.37,2013-02-06 09:46:00,
2013-02-06 01:51:00,37.1,35.0,30.16,NE,55,0.0,0.0,92,0.00,CLR,,0.00,WeatherDisplay:10.37,2013-02-06 09:51:00,
2013-02-06 01:56:00,37.0,34.9,30.17,NE,55,0.0,0.0,92,0.00,CLR,,0.00,WeatherDisplay:10.37,2013-02-06 09:56:00,
2013-02-06 02:01:00,36.8,34.7,30.17,NE,55,0.0,0.0,92,0.00,CLR,,0.00,WeatherDisplay:10.37,2013-02-06 10:01:00,
2013-02-06 02:06:00,36.6,34.5,30.17,NE,55,0.0,0.0,92,0.00,CLR,,0.00,WeatherDisplay:10.37,2013-02-06 10:06:00,
2013-02-06 02:11:00,36.5,34.4,30.17,NE,55,0.0,0.0,92,0.00,CLR,,0.00,WeatherDisplay:10.37,2013-02-06 10:11:00,
2013-02-06 02:16:00,36.4,34.3,30.17,NE,55,0.0,0.0,92,0.00,CLR,,0.00,WeatherDisplay:10.37,2013-02-06 10:16:00,
2013-02-06 02:21:00,36.2,34.1,30.17,NE,55,0.0,0.0,92,0.00,CLR,,0.00,WeatherDisplay:10.37,2013-02-06 10:21:00,
2013-02-06 02:26:00,36.1,34.0,30.17,NE,55,0.0,0.0,92,0.00,CLR,,0.00,WeatherDisplay:10.37,2013-02-06 10:26:00,
2013-02-06 02:31:00,36.0,33.9,30.17,NE,55,0.0,0.0,92,0.00,CLR,,0.00,WeatherDisplay:10.37,2013-02-06 10:31:00,
2013-02-06 02:36:00,35.8,33.7,30.17,NE,55,0.0,0.0,92,0.00,CLR,,0.00,WeatherDisplay:10.37,2013-02-06 10:36:00,
2013-02-06 02:41:00,35.7,33.6,30.17,NE,55,0.0,0.0,92,0.00,CLR,,0.00,WeatherDisplay:10.37,2013-02-06 10:41:00,
2013-02-06 02:46:00,35.6,33.5,30.16,NE,55,0.0,0.0,92,0.00,CLR,,0.00,WeatherDisplay:10.37,2013-02-06 10:46:00,
2013-02-06 02:51:00,35.4,33.3,30.16,NE,55,0.0,0.0,92,0.00,CLR,,0.00,WeatherDisplay:10.37,2013-02-06 10:51:00,
2013-02-06 02:56:00,35.2,33.1,30.16,NE,55,0.0,0.0,92,0.00,CLR,,0.00,WeatherDisplay:10.37,2013-02-06 10:56:00,
2013-02-06 03:01:00,35.1,33.0,30.17,NE,55,0.0,0.0,92,0.00,CLR,,0.00,WeatherDisplay:10.37,2013-02-06 11:01:00,
2013-02-06 03:06:00,35.0,32.9,30.17,NE,55,0.0,0.0,92,0.00,CLR,,0.00,WeatherDisplay:10.37,2013-02-06 11:06:00,
2013-02-06 03:11:00,34.8,32.7,30.17,NE,55,0.0,0.0,92,0.00,CLR,,0.00,WeatherDisplay:10.37,2013-02-06 11:11:00,
2013-02-06 03:16:00,34.6,32.5,30.17,NE,55,0.0,0.0,92,0.00,CLR,,0.00,WeatherDisplay:10.37,2013-02-06 11:16:00,
2013-02-06 03:21:00,34.5,32.4,30.17,NE,55,0.0,0.0,92,0.00,CLR,,0.00,WeatherDisplay:10.37,2013-02-06 11:21:00,
2013-02-06 03:26:00,34.4,32.6,30.17,NE,55,0.0,0.0,93,0.00,CLR,,0.00,WeatherDisplay:10.37,2013-02-06 11:26:00,
2013-02-06 03:31:00,34.3,32.2,30.17,NE,55,0.0,0.0,92,0.00,CLR,,0.00,WeatherDisplay:10.37,2013-02-06 11:31:00,
2013-02-06 03:36:00,34.2,32.1,30.17,NE,55,0.0,0.0,92,0.00,CLR,,0.00,WeatherDisplay:10.37,2013-02-06 11:36:00,
2013-02-06 03:41:00,34.1,32.3,30.17,NE,55,0.0,0.0,93,0.00,CLR,,0.00,WeatherDisplay:10.37,2013-02-06 11:41:00,
2013-02-06 03:46:00,34.1,32.3,30.17,NE,55,0.0,0.0,93,0.00,CLR,,0.00,WeatherDisplay:10.37,2013-02-06 11:46:00,
2013-02-06 03:51:00,34.0,32.2,30.17,NE,55,0.0,0.0,93,0.00,CLR,,0.00,WeatherDisplay:10.37,2013-02-06 11:51:00,
2013-02-06 03:56:00,33.8,32.0,30.16,NE,55,0.0,0.0,93,0.00,CLR,,0.00,WeatherDisplay:10.37,2013-02-06 11:56:00,
2013-02-06 04:01:00,33.7,31.6,30.16,NE,55,0.0,0.0,92,0.00,CLR,,0.00,WeatherDisplay:10.37,2013-02-06 12:01:00,
2013-02-06 04:06:00,33.6,31.5,30.16,NE,55,0.0,0.0,92,0.00,CLR,,0.00,WeatherDisplay:10.37,2013-02-06 12:06:00,
2013-02-06 04:11:00,33.5,31.7,30.17,NE,55,0.0,0.0,93,0.00,CLR,,0.00,WeatherDisplay:10.37,2013-02-06 12:11:00,
2013-02-06 04:16:00,33.4,31.6,30.17,NE,55,0.0,0.0,93,0.00,CLR,,0.00,WeatherDisplay:10.37,2013-02-06 12:16:00,
2013-02-06 04:21:00,33.4,31.6,30.17,NE,55,0.0,0.0,93,0.00,CLR,,0.00,WeatherDisplay:10.37,2013-02-06 12:21:00,
2013-02-06 04:26:00,33.3,31.5,30.16,NE,55,0.0,0.0,93,0.00,CLR,,0.00,WeatherDisplay:10.37,2013-02-06 12:26:00,
2013-02-06 04:31:00,33.2,31.4,30.17,NE,55,0.0,0.0,93,0.00,CLR,,0.00,WeatherDisplay:10.37,2013-02-06 12:31:00,
2013-02-06 04:36:00,33.3,31.5,30.17,NE,55,0.0,0.0,93,0.00,CLR,,0.00,WeatherDisplay:10.37,2013-02-06 12:36:00,
2013-02-06 04:41:00,33.2,31.4,30.17,NE,55,0.0,0.0,93,0.00,CLR,,0.00,WeatherDisplay:10.37,2013-02-06 12:41:00,
2013-02-06 04:46:00,33.2,31.4,30.17,NE,55,0.0,0.0,93,0.00,CLR,,0.00,WeatherDisplay:10.37,2013-02-06 12:46:00,
2013-02-06 04:51:00,33.3,31.5,30.17,NE,55,0.0,0.0,93,0.00,CLR,,0.00,WeatherDisplay:10.37,2013-02-06 12:51:00,
2013-02-06 04:56:00,33.3,31.5,30.17,NE,55,0.0,0.0,93,0.00,CLR,,0.00,WeatherDisplay:10.37,2013-02-06 12:56:00,
2013-02-06 05:01:00,33.3,31.5,30.17,NE,55,0.0,0.0,93,0.00,CLR,,0.00,WeatherDisplay:10.37,2013-02-06 13:01:00,
2013-02-06 05:06:00,33.3,31.5,30.17,NE,55,0.0,0.0,93,0.00,CLR,,0.00,WeatherDisplay:10.37,2013-02-06 13:06:00,
2013-02-06 05:11:00,33.3,31.5,30.17,NE,55,0.0,0.0,93,0.00,CLR,,0.00,WeatherDisplay:10.37,2013-02-06 13:11:00,
2013-02-06 05:16:00,33.3,31.5,30.17,NE,55,0.0,0.0,93,0.00,CLR,,0.00,WeatherDisplay:10.37,2013-02-06 13:16:00,
2013-02-06 05:21:00,33.3,31.5,30.16,NE,55,0.0,0.0,93,0.00,CLR,,0.00,WeatherDisplay:10.37,2013-02-06 13:21:00,
2013-02-06 05:26:00,33.3,31.5,30.17,NE,55,0.0,0.0,93,0.00,CLR,,0.00,WeatherDisplay:10.37,2013-02-06 13:26:00,
2013-02-06 05:31:00,33.2,31.4,30.17,NE,55,0.0,0.0,93,0.00,CLR,,0.00,WeatherDisplay:10.37,2013-02-06 13:31:00,
2013-02-06 05:36:00,33.2,31.4,30.17,NE,55,0.0,0.0,93,0.00,CLR,,0.00,WeatherDisplay:10.37,2013-02-06 13:36:00,
2013-02-06 05:41:00,33.2,31.4,30.17,NE,55,0.0,0.0,93,0.00,CLR,,0.00,WeatherDisplay:10.37,2013-02-06 13:41:00,
2013-02-06 05:46:00,33.2,31.4,30.17,NE,55,0.0,0.0,93,0.00,CLR,,0.00,WeatherDisplay:10.37,2013-02-06 13:46:00,
2013-02-06 05:51:00,33.2,31.4,30.17,NE,55,0.0,0.0,93,0.00,CLR,,0.00,WeatherDisplay:10.37,2013-02-06 13:51:00,
2013-02-06 05:56:00,33.3,31.5,30.17,NE,55,0.0,0.0,93,0.00,CLR,,0.00,WeatherDisplay:10.37,2013-02-06 13:56:00,
2013-02-06 06:01:00,33.3,31.5,30.17,NE,55,0.0,0.0,93,0.00,CLR,,0.00,WeatherDisplay:10.37,2013-02-06 14:01:00,
2013-02-06 06:06:00,33.4,31.6,30.17,NE,55,0.0,0.0,93,0.00,CLR,,0.00,WeatherDisplay:10.37,2013-02-06 14:06:00,
2013-02-06 06:11:00,33.4,31.6,30.17,NE,55,0.0,0.0,93,0.00,CLR,,0.00,WeatherDisplay:10.37,2013-02-06 14:11:00,
2013-02-06 06:17:00,33.4,31.6,30.18,NE,55,0.0,0.0,93,0.00,CLR,,0.00,WeatherDisplay:10.37,2013-02-06 14:17:00,
2013-02-06 06:22:00,33.4,31.6,30.18,NE,55,0.0,0.0,93,0.00,CLR,,0.00,WeatherDisplay:10.37,2013-02-06 14:22:00,
2013-02-06 06:27:00,33.5,31.9,30.18,NE,55,0.0,0.0,94,0.00,CLR,,0.00,WeatherDisplay:10.37,2013-02-06 14:27:00,
2013-02-06 06:32:00,33.5,31.7,30.18,NE,55,0.0,0.0,93,0.00,CLR,,0.00,WeatherDisplay:10.37,2013-02-06 14:32:00,
2013-02-06 06:37:00,33.5,31.7,30.18,NE,55,0.0,0.0,93,0.00,CLR,,0.00,WeatherDisplay:10.37,2013-02-06 14:37:00,
2013-02-06 06:42:00,33.5,31.7,30.18,NE,55,0.0,0.0,93,0.00,CLR,,0.00,WeatherDisplay:10.37,2013-02-06 14:42:00,
2013-02-06 06:47:00,33.5,31.7,30.19,NE,55,0.0,0.0,93,0.00,CLR,,0.00,WeatherDisplay:10.37,2013-02-06 14:47:00,
2013-02-06 06:52:00,33.5,31.7,30.19,NE,55,0.0,0.0,93,0.00,CLR,,0.00,WeatherDisplay:10.37,2013-02-06 14:52:00,
2013-02-06 06:57:00,33.4,31.6,30.19,NE,55,0.0,0.0,93,0.00,CLR,,0.00,WeatherDisplay:10.37,2013-02-06 14:57:00,
2013-02-06 07:02:00,33.4,31.6,30.19,NE,55,0.0,0.0,93,0.00,CLR,,0.00,WeatherDisplay:10.37,2013-02-06 15:02:00,
2013-02-06 07:07:00,33.4,31.6,30.19,NE,55,0.0,0.0,93,0.00,CLR,,0.00,WeatherDisplay:10.37,2013-02-06 15:07:00,
2013-02-06 07:12:00,33.3,31.7,30.19,NE,55,0.0,0.0,94,0.00,CLR,,0.00,WeatherDisplay:10.37,2013-02-06 15:12:00,
2013-02-06 07:17:00,33.3,31.7,30.19,NE,55,0.0,0.0,94,0.00,CLR,,0.00,WeatherDisplay:10.37,2013-02-06 15:17:00,
2013-02-06 07:22:00,33.3,31.7,30.20,NE,55,0.0,0.0,94,0.00,CLR,,0.00,WeatherDisplay:10.37,2013-02-06 15:22:00,
2013-02-06 07:27:00,33.3,31.7,30.20,NE,55,0.0,0.0,94,0.00,CLR,,0.00,WeatherDisplay:10.37,2013-02-06 15:27:00,
2013-02-06 07:32:00,33.3,31.7,30.20,NE,55,0.0,0.0,94,0.00,CLR,,0.00,WeatherDisplay:10.37,2013-02-06 15:32:00,
2013-02-06 07:37:00,33.3,31.7,30.20,NE,55,0.0,0.0,94,0.00,CLR,,0.00,WeatherDisplay:10.37,2013-02-06 15:37:00,
2013-02-06 07:42:00,33.3,31.7,30.20,NE,55,0.0,0.0,94,0.00,CLR,,0.00,WeatherDisplay:10.37,2013-02-06 15:42:00,
2013-02-06 07:47:00,33.3,31.7,30.20,NE,55,0.0,0.0,94,0.00,CLR,,0.00,WeatherDisplay:10.37,2013-02-06 15:47:00,
2013-02-06 07:52:00,33.4,31.8,30.20,NE,55,0.0,0.0,94,0.00,CLR,,0.00,WeatherDisplay:10.37,2013-02-06 15:52:00,
2013-02-06 07:57:00,33.4,31.8,30.20,NE,55,0.0,0.0,94,0.00,CLR,,0.00,WeatherDisplay:10.37,2013-02-06 15:57:00,
2013-02-06 08:02:00,33.6,32.0,30.20,NE,55,0.0,0.0,94,0.00,CLR,,0.00,WeatherDisplay:10.37,2013-02-06 16:02:00,
2013-02-06 08:07:00,34.0,32.4,30.20,NE,55,0.0,0.0,94,0.00,CLR,,0.00,WeatherDisplay:10.37,2013-02-06 16:07:00,
2013-02-06 08:12:00,34.6,33.0,30.21,NE,55,0.0,0.0,94,0.00,CLR,,0.00,WeatherDisplay:10.37,2013-02-06 16:12:00,
2013-02-06 08:17:00,35.0,33.4,30.21,NE,55,0.0,0.0,94,0.00,CLR,,0.00,WeatherDisplay:10.37,2013-02-06 16:17:00,
2013-02-06 08:22:00,35.4,33.8,30.21,NE,55,0.0,0.0,94,0.00,CLR,,0.00,WeatherDisplay:10.37,2013-02-06 16:22:00,
2013-02-06 08:27:00,35.9,34.6,30.21,NE,55,0.0,0.0,95,0.01,RA,,0.01,WeatherDisplay:10.37,2013-02-06 16:27:00,
2013-02-06 08:32:00,36.6,35.3,30.21,NE,55,0.0,0.0,95,0.01,RA,,0.01,WeatherDisplay:10.37,2013-02-06 16:32:00,
2013-02-06 08:37:00,37.3,36.0,30.21,NE,55,0.0,0.0,95,0.01,,,0.01,WeatherDisplay:10.37,2013-02-06 16:37:00,
2013-02-06 08:42:00,37.9,36.6,30.21,NE,55,0.0,0.0,95,0.01,CLR,,0.01,WeatherDisplay:10.37,2013-02-06 16:42:00,
2013-02-06 08:47:00,38.4,37.1,30.22,NE,55,0.0,0.0,95,0.01,CLR,,0.01,WeatherDisplay:10.37,2013-02-06 16:47:00,
2013-02-06 08:52:00,39.0,37.7,30.22,NE,55,0.0,0.0,95,0.01,CLR,,0.01,WeatherDisplay:10.37,2013-02-06 16:52:00,
2013-02-06 08:57:00,39.5,38.2,30.22,NE,55,0.0,0.0,95,0.01,CLR,,0.01,WeatherDisplay:10.37,2013-02-06 16:57:00,
2013-02-06 09:02:00,40.1,38.8,30.22,NE,55,0.0,0.0,95,0.01,CLR,,0.01,WeatherDisplay:10.37,2013-02-06 17:02:00,
2013-02-06 09:07:00,40.8,39.5,30.22,NE,55,1.1,1.1,95,0.01,CLR,,0.01,WeatherDisplay:10.37,2013-02-06 17:07:00,
2013-02-06 09:12:00,41.4,40.1,30.22,NE,56,1.1,1.1,95,0.01,CLR,,0.01,WeatherDisplay:10.37,2013-02-06 17:12:00,
2013-02-06 09:17:00,41.9,40.6,30.21,NE,56,1.1,0.0,95,0.01,CLR,,0.01,WeatherDisplay:10.37,2013-02-06 17:17:00,
2013-02-06 09:22:00,42.5,41.1,30.21,NE,56,0.0,0.0,95,0.01,CLR,,0.01,WeatherDisplay:10.37,2013-02-06 17:22:00,
2013-02-06 09:27:00,43.5,42.1,30.21,NE,56,0.0,0.0,95,0.00,CLR,,0.01,WeatherDisplay:10.37,2013-02-06 17:27:00,
2013-02-06 09:37:00,45.2,43.6,30.20,NE,56,0.0,0.0,94,0.00,CLR,,0.01,WeatherDisplay:10.37,2013-02-06 17:37:00,
2013-02-06 09:42:00,46.0,44.1,30.21,NE,56,0.0,0.0,93,0.00,CLR,,0.01,WeatherDisplay:10.37,2013-02-06 17:42:00,
2013-02-06 09:47:00,46.8,44.3,30.21,NE,56,0.0,0.1,91,0.00,CLR,,0.01,WeatherDisplay:10.37,2013-02-06 17:47:00,
2013-02-06 09:52:00,47.8,45.3,30.20,NE,56,0.0,0.2,91,0.00,CLR,,0.01,WeatherDisplay:10.37,2013-02-06 17:52:00,
2013-02-06 09:57:00,48.7,45.6,30.21,NE,56,2.3,2.3,89,0.00,CLR,,0.01,WeatherDisplay:10.37,2013-02-06 17:57:00,
2013-02-06 10:02:00,49.7,46.3,30.21,NE,56,1.1,1.1,88,0.00,CLR,,0.01,WeatherDisplay:10.37,2013-02-06 18:02:00,
2013-02-06 10:07:00,50.7,47.0,30.21,ESE,117,4.6,4.6,87,0.00,CLR,,0.01,WeatherDisplay:10.37,2013-02-06 18:07:00,
2013-02-06 10:12:00,51.4,46.7,30.20,ESE,108,5.0,5.0,84,0.00,CLR,,0.01,WeatherDisplay:10.37,2013-02-06 18:12:00,
2013-02-06 10:17:00,52.2,46.9,30.20,ESE,121,4.0,4.0,82,0.00,CLR,,0.01,WeatherDisplay:10.37,2013-02-06 18:17:00,
2013-02-06 10:22:00,52.9,46.5,30.20,ESE,123,2.3,0.0,79,0.00,CLR,,0.01,WeatherDisplay:10.37,2013-02-06 18:22:00,
2013-02-06 10:27:00,53.7,46.6,30.20,East,90,2.3,2.3,77,0.00,CLR,,0.01,WeatherDisplay:10.37,2013-02-06 18:27:00,
2013-02-06 10:32:00,54.4,46.6,30.20,East,98,2.0,2.0,75,0.00,CLR,,0.01,WeatherDisplay:10.37,2013-02-06 18:32:00,
2013-02-06 10:37:00,55.0,46.1,30.20,ESE,109,1.1,0.0,72,0.00,CLR,,0.01,WeatherDisplay:10.37,2013-02-06 18:37:00,
2013-02-06 10:42:00,55.7,47.2,30.19,ESE,109,0.0,0.0,73,0.00,CLR,,0.01,WeatherDisplay:10.37,2013-02-06 18:42:00,
2013-02-06 10:47:00,56.3,46.6,30.19,ESE,109,1.1,1.1,70,0.00,CLR,,0.01,WeatherDisplay:10.37,2013-02-06 18:47:00,
2013-02-06 10:52:00,56.8,46.3,30.19,ESE,109,2.3,2.3,68,0.00,CLR,,0.01,WeatherDisplay:10.37,2013-02-06 18:52:00,
2013-02-06 10:57:00,57.3,46.4,30.18,ESE,109,2.3,2.3,67,0.00,CLR,,0.01,WeatherDisplay:10.37,2013-02-06 18:57:00,
2013-02-06 11:02:00,57.8,46.9,30.18,SE,136,4.6,4.6,67,0.00,CLR,,0.01,WeatherDisplay:10.37,2013-02-06 19:02:00,
2013-02-06 11:07:00,58.3,47.4,30.18,SE,136,3.5,3.5,67,0.00,CLR,,0.01,WeatherDisplay:10.37,2013-02-06 19:07:00,
2013-02-06 11:12:00,58.6,47.3,30.18,SE,136,1.0,1.1,66,0.00,CLR,,0.01,WeatherDisplay:10.37,2013-02-06 19:12:00,
2013-02-06 11:17:00,59.2,48.2,30.18,SSE,157,4.6,4.6,67,0.00,CLR,,0.01,WeatherDisplay:10.37,2013-02-06 19:17:00,
2013-02-06 11:23:00,59.6,48.2,30.18,SE,133,6.0,6.5,66,0.00,CLR,,0.01,WeatherDisplay:10.37,2013-02-06 19:23:00,
2013-02-06 11:28:00,59.8,48.4,30.18,SE,128,8.1,8.1,66,0.00,CLR,,0.01,WeatherDisplay:10.37,2013-02-06 19:28:00,
2013-02-06 11:33:00,59.9,48.9,30.18,ESE,119,8.1,8.1,67,0.00,CLR,,0.01,WeatherDisplay:10.37,2013-02-06 19:33:00,
2013-02-06 11:38:00,59.7,48.7,30.18,SSE,155,8.1,8.1,67,0.00,CLR,,0.01,WeatherDisplay:10.37,2013-02-06 19:38:00,
2013-02-06 11:43:00,59.6,48.6,30.18,SE,129,6.9,6.9,67,0.00,CLR,,0.01,WeatherDisplay:10.37,2013-02-06 19:43:00,
2013-02-06 11:48:00,59.2,49.0,30.17,SSE,160,4.6,4.6,69,0.00,CLR,,0.01,WeatherDisplay:10.37,2013-02-06 19:48:00,
2013-02-06 11:53:00,58.8,49.8,30.17,ESE,115,5.0,5.0,72,0.00,CLR,,0.01,WeatherDisplay:10.37,2013-02-06 19:53:00,
2013-02-06 11:58:00,58.7,48.9,30.17,ENE,78,4.0,4.0,70,0.00,CLR,,0.01,WeatherDisplay:10.37,2013-02-06 19:58:00,
2013-02-06 12:03:00,58.5,49.1,30.18,SE,146,3.5,3.5,71,0.00,CLR,,0.01,WeatherDisplay:10.37,2013-02-06 20:03:00,
2013-02-06 12:08:00,58.3,49.3,30.18,SSW,200,8.1,8.1,72,0.00,CLR,,0.01,WeatherDisplay:10.37,2013-02-06 20:08:00,
2013-02-06 12:13:00,57.9,48.9,30.18,South,177,6.0,6.0,72,0.00,CLR,,0.01,WeatherDisplay:10.37,2013-02-06 20:13:00,
2013-02-06 12:18:00,57.6,48.6,30.17,ESE,112,2.3,2.3,72,0.00,CLR,,0.01,WeatherDisplay:10.37,2013-02-06 20:18:00,
2013-02-06 12:23:00,57.9,49.3,30.17,SSE,167,8.1,8.1,73,0.00,CLR,,0.01,WeatherDisplay:10.37,2013-02-06 20:23:00,
2013-02-06 12:28:00,58.1,49.5,30.17,SSE,167,9.2,9.2,73,0.00,CLR,,0.01,WeatherDisplay:10.37,2013-02-06 20:28:00,
2013-02-06 12:33:00,58.1,49.1,30.17,SSE,161,3.5,3.5,72,0.00,CLR,,0.01,WeatherDisplay:10.37,2013-02-06 20:33:00,
2013-02-06 12:38:00,58.3,49.3,30.17,ESE,119,2.3,2.3,72,0.00,CLR,,0.01,WeatherDisplay:10.37,2013-02-06 20:38:00,
2013-02-06 12:43:00,58.5,49.5,30.17,SSE,153,3.5,3.5,72,0.00,CLR,,0.01,WeatherDisplay:10.37,2013-02-06 20:43:00,
2013-02-06 12:48:00,58.7,50.0,30.16,ESE,107,4.0,4.0,73,0.00,CLR,,0.01,WeatherDisplay:10.37,2013-02-06 20:48:00,
2013-02-06 12:53:00,58.9,49.5,30.16,SSE,148,6.9,6.9,71,0.00,CLR,,0.01,WeatherDisplay:10.37,2013-02-06 20:53:00,
2013-02-06 12:58:00,58.9,49.5,30.16,South,173,5.8,5.8,71,0.00,CLR,,0.01,WeatherDisplay:10.37,2013-02-06 20:58:00,
2013-02-06 13:03:00,59.0,50.0,30.15,ENE,72,4.6,4.6,72,0.00,CLR,,0.01,WeatherDisplay:10.37,2013-02-06 21:03:00,
2013-02-06 13:08:00,59.4,50.0,30.15,ESE,123,5.8,5.8,71,0.00,CLR,,0.01,WeatherDisplay:10.37,2013-02-06 21:08:00,
2013-02-06 13:13:00,59.5,50.1,30.15,ENE,65,3.5,3.5,71,0.00,CLR,,0.01,WeatherDisplay:10.37,2013-02-06 21:13:00,
2013-02-06 13:18:00,59.8,50.4,30.15,SE,126,4.6,4.6,71,0.00,CLR,,0.01,WeatherDisplay:10.37,2013-02-06 21:18:00,
2013-02-06 13:23:00,60.1,50.6,30.15,SSW,192,4.6,4.6,71,0.00,CLR,,0.01,WeatherDisplay:10.37,2013-02-06 21:23:00,
2013-02-06 13:28:00,60.3,50.8,30.14,East,80,3.5,3.5,71,0.00,CLR,,0.01,WeatherDisplay:10.37,2013-02-06 21:28:00,
2013-02-06 13:33:00,60.4,50.2,30.14,ESE,112,0.0,0.0,69,0.00,CLR,,0.01,WeatherDisplay:10.37,2013-02-06 21:33:00,
2013-02-06 13:38:00,60.6,50.7,30.14,South,190,5.8,5.8,70,0.00,CLR,,0.01,WeatherDisplay:10.37,2013-02-06 21:38:00,
2013-02-06 13:43:00,60.7,50.4,30.14,ESE,116,5.8,5.8,69,0.00,CLR,,0.01,WeatherDisplay:10.37,2013-02-06 21:43:00,
2013-02-06 13:48:00,60.6,50.4,30.14,ESE,114,5.0,5.0,69,0.00,CLR,,0.01,WeatherDisplay:10.37,2013-02-06 21:48:00,
2013-02-06 13:53:00,60.7,51.2,30.13,East,100,4.6,4.6,71,0.00,CLR,,0.01,WeatherDisplay:10.37,2013-02-06 21:53:00,
2013-02-06 13:58:00,60.8,50.5,30.14,ESE,107,5.8,5.8,69,0.00,CLR,,0.01,WeatherDisplay:10.37,2013-02-06 21:58:00,
2013-02-06 14:03:00,60.8,50.9,30.13,SE,128,4.6,4.6,70,0.00,CLR,,0.01,WeatherDisplay:10.37,2013-02-06 22:03:00,
2013-02-06 14:08:00,60.8,50.5,30.13,South,171,9.0,9.0,69,0.00,CLR,,0.01,WeatherDisplay:10.37,2013-02-06 22:08:00,
2013-02-06 14:13:00,60.8,50.5,30.13,SE,134,4.0,4.0,69,0.00,CLR,,0.01,WeatherDisplay:10.37,2013-02-06 22:13:00,
2013-02-06 14:18:00,60.9,50.2,30.13,SSE,153,5.8,5.8,68,0.00,CLR,,0.01,WeatherDisplay:10.37,2013-02-06 22:18:00,
2013-02-06 14:23:00,61.2,50.5,30.13,SE,146,5.8,5.8,68,0.00,CLR,,0.01,WeatherDisplay:10.37,2013-02-06 22:23:00,
2013-02-06 14:28:00,61.1,49.6,30.13,South,175,3.5,3.5,66,0.00,CLR,,0.01,WeatherDisplay:10.37,2013-02-06 22:28:00,
2013-02-06 14:33:00,61.1,50.0,30.13,SSE,164,5.0,5.0,67,0.00,CLR,,0.01,WeatherDisplay:10.37,2013-02-06 22:33:00,
2013-02-06 14:38:00,61.2,49.7,30.13,SE,143,3.5,3.5,66,0.00,CLR,,0.01,WeatherDisplay:10.37,2013-02-06 22:38:00,
2013-02-06 14:43:00,61.4,50.3,30.13,East,100,1.1,1.1,67,0.00,CLR,,0.01,WeatherDisplay:10.37,2013-02-06 22:43:00,
2013-02-06 14:48:00,61.5,50.0,30.13,SSE,153,4.6,4.6,66,0.00,CLR,,0.01,WeatherDisplay:10.37,2013-02-06 22:48:00,
2013-02-06 14:53:00,61.5,50.0,30.13,SE,142,5.8,5.8,66,0.00,CLR,,0.01,WeatherDisplay:10.37,2013-02-06 22:53:00,
2013-02-06 14:58:00,61.4,49.1,30.13,South,173,5.0,5.0,64,0.00,CLR,,0.01,WeatherDisplay:10.37,2013-02-06 22:58:00,
2013-02-06 15:03:00,61.3,49.4,30.13,ENE,71,3.0,3.0,65,0.00,CLR,,0.01,WeatherDisplay:10.37,2013-02-06 23:03:00,
2013-02-06 15:08:00,61.3,49.4,30.13,South,171,1.1,0.0,65,0.00,CLR,,0.01,WeatherDisplay:10.37,2013-02-06 23:08:00,
2013-02-06 15:13:00,61.2,49.3,30.13,SSE,161,2.3,2.3,65,0.00,CLR,,0.01,WeatherDisplay:10.37,2013-02-06 23:13:00,
2013-02-06 15:18:00,61.0,48.7,30.13,SSE,161,3.5,0.0,64,0.00,CLR,,0.01,WeatherDisplay:10.37,2013-02-06 23:18:00,
2013-02-06 15:23:00,60.9,49.0,30.13,South,176,4.6,4.6,65,0.00,CLR,,0.01,WeatherDisplay:10.37,2013-02-06 23:23:00,
2013-02-06 15:28:00,60.8,48.5,30.13,SE,125,3.5,3.5,64,0.00,CLR,,0.01,WeatherDisplay:10.37,2013-02-06 23:28:00,
2013-02-06 15:33:00,60.8,48.5,30.13,SSE,168,5.0,5.0,64,0.00,CLR,,0.01,WeatherDisplay:10.37,2013-02-06 23:33:00,
2013-02-06 15:38:00,60.7,48.4,30.13,South,178,3.5,3.5,64,0.00,CLR,,0.01,WeatherDisplay:10.37,2013-02-06 23:38:00,
2013-02-06 15:43:00,60.6,48.7,30.13,SE,146,1.1,1.1,65,0.00,CLR,,0.01,WeatherDisplay:10.37,2013-02-06 23:43:00,
2013-02-06 15:48:00,60.6,48.7,30.13,SE,131,3.5,3.5,65,0.00,CLR,,0.01,WeatherDisplay:10.37,2013-02-06 23:48:00,
2013-02-06 15:53:00,60.5,48.7,30.13,SE,136,3.5,3.5,65,0.00,CLR,,0.01,WeatherDisplay:10.37,2013-02-06 23:53:00,
2013-02-06 15:58:00,60.3,48.5,30.13,South,186,4.6,4.6,65,0.00,CLR,,0.01,WeatherDisplay:10.37,2013-02-06 23:58:00,
2013-02-06 16:03:00,60.2,48.4,30.13,South,186,0.0,0.0,65,0.00,CLR,,0.01,WeatherDisplay:10.37,2013-02-07 00:03:00,
2013-02-06 16:08:00,60.1,48.3,30.13,SSE,148,3.5,3.5,65,0.00,CLR,,0.01,WeatherDisplay:10.37,2013-02-07 00:08:00,
2013-02-06 16:13:00,60.0,48.2,30.13,East,83,3.5,3.5,65,0.00,CLR,,0.01,WeatherDisplay:10.37,2013-02-07 00:13:00,
2013-02-06 16:18:00,59.9,48.5,30.13,ESE,110,0.0,0.0,66,0.00,CLR,,0.01,WeatherDisplay:10.37,2013-02-07 00:18:00,
2013-02-06 16:23:00,59.8,49.2,30.13,ESE,110,0.0,0.0,68,0.00,CLR,,0.01,WeatherDisplay:10.37,2013-02-07 00:23:00,
2013-02-06 16:28:00,59.5,49.3,30.13,ESE,110,1.1,0.0,69,0.00,CLR,,0.01,WeatherDisplay:10.37,2013-02-07 00:28:00,
2013-02-06 16:33:00,59.2,49.4,30.13,ESE,110,1.0,0.0,70,0.00,CLR,,0.01,WeatherDisplay:10.37,2013-02-07 00:33:00,
2013-02-06 16:38:00,58.8,49.0,30.14,ESE,109,1.1,1.1,70,0.00,CLR,,0.01,WeatherDisplay:10.37,2013-02-07 00:38:00,
2013-02-06 16:43:00,58.3,48.9,30.14,ENE,58,1.1,1.1,71,0.00,CLR,,0.01,WeatherDisplay:10.37,2013-02-07 00:43:00,
2013-02-06 16:48:00,57.8,48.1,30.14,NNW,331,2.3,2.3,70,0.00,CLR,,0.01,WeatherDisplay:10.37,2013-02-07 00:48:00,
2013-02-06 16:54:00,57.6,48.6,30.14,North,349,2.3,2.3,72,0.00,CLR,,0.01,WeatherDisplay:10.37,2013-02-07 00:54:00,
2013-02-06 16:59:00,57.2,47.9,30.14,NE,41,2.3,0.0,71,0.00,CLR,,0.01,WeatherDisplay:10.37,2013-02-07 00:59:00,
2013-02-06 17:04:00,57.0,48.0,30.14,NNE,29,1.1,1.1,72,0.00,CLR,,0.01,WeatherDisplay:10.37,2013-02-07 01:04:00,
2013-02-06 17:09:00,56.8,48.2,30.14,NNE,29,0.0,0.0,73,0.00,CLR,,0.01,WeatherDisplay:10.37,2013-02-07 01:09:00,
2013-02-06 17:14:00,56.5,47.9,30.14,North,355,2.0,2.0,73,0.00,CLR,,0.01,WeatherDisplay:10.37,2013-02-07 01:14:00,
2013-02-06 17:19:00,56.1,47.5,30.14,NNE,24,1.1,0.0,73,0.00,CLR,,0.01,WeatherDisplay:10.37,2013-02-07 01:19:00,
2013-02-06 17:24:00,55.9,47.7,30.14,NE,50,1.1,1.1,74,0.00,CLR,,0.01,WeatherDisplay:10.37,2013-02-07 01:24:00,
2013-02-06 17:29:00,55.5,47.7,30.14,NE,50,1.1,1.1,75,0.00,CLR,,0.01,WeatherDisplay:10.37,2013-02-07 01:29:00,
2013-02-06 17:34:00,55.1,47.6,30.14,NE,50,1.1,1.1,76,0.00,CLR,,0.01,WeatherDisplay:10.37,2013-02-07 01:34:00,
2013-02-06 17:39:00,54.8,47.7,30.14,NE,50,0.0,0.0,77,0.00,CLR,,0.01,WeatherDisplay:10.37,2013-02-07 01:39:00,
2013-02-06 17:44:00,54.4,47.7,30.15,NE,50,0.0,0.0,78,0.00,CLR,,0.01,WeatherDisplay:10.37,2013-02-07 01:44:00,
2013-02-06 17:49:00,54.2,47.5,30.15,NE,50,0.0,0.0,78,0.00,CLR,,0.01,WeatherDisplay:10.37,2013-02-07 01:49:00,
2013-02-06 17:54:00,53.8,47.1,30.15,NE,50,0.0,0.0,78,0.00,CLR,,0.01,WeatherDisplay:10.37,2013-02-07 01:54:00,
2013-02-06 17:59:00,53.3,46.9,30.15,NE,50,0.0,0.0,79,0.00,CLR,,0.01,WeatherDisplay:10.37,2013-02-07 01:59:00,
2013-02-06 18:04:00,52.9,46.5,30.15,NE,50,0.0,0.0,79,0.00,CLR,,0.01,WeatherDisplay:10.37,2013-02-07 02:04:00,
2013-02-06 18:09:00,52.6,46.3,30.15,NE,50,0.0,0.0,79,0.00,CLR,,0.01,WeatherDisplay:10.37,2013-02-07 02:09:00,
2013-02-06 18:14:00,52.3,46.3,30.16,NE,50,0.0,0.0,80,0.00,CLR,,0.01,WeatherDisplay:10.37,2013-02-07 02:14:00,
2013-02-06 18:19:00,51.9,45.9,30.15,NE,50,0.0,0.0,80,0.00,CLR,,0.01,WeatherDisplay:10.37,2013-02-07 02:19:00,
2013-02-06 18:24:00,51.5,45.5,30.16,NE,50,0.0,0.0,80,0.00,CLR,,0.01,WeatherDisplay:10.37,2013-02-07 02:24:00,
2013-02-06 18:29:00,51.1,45.5,30.16,NE,50,0.0,0.0,81,0.00,CLR,,0.01,WeatherDisplay:10.37,2013-02-07 02:29:00,
2013-02-06 18:34:00,50.8,45.2,30.16,NE,50,1.1,1.1,81,0.00,CLR,,0.01,WeatherDisplay:10.37,2013-02-07 02:34:00,
2013-02-06 18:39:00,50.5,45.2,30.16,NE,50,0.0,0.0,82,0.00,CLR,,0.01,WeatherDisplay:10.37,2013-02-07 02:39:00,
2013-02-06 18:44:00,50.2,44.9,30.16,NE,50,0.0,0.0,82,0.00,CLR,,0.01,WeatherDisplay:10.37,2013-02-07 02:44:00,
2013-02-06 18:49:00,49.9,44.6,30.16,NE,50,0.0,0.0,82,0.00,CLR,,0.01,WeatherDisplay:10.37,2013-02-07 02:49:00,
2013-02-06 18:54:00,49.6,44.6,30.16,NE,50,0.0,0.0,83,0.00,CLR,,0.01,WeatherDisplay:10.37,2013-02-07 02:54:00,
2013-02-06 18:59:00,49.3,44.3,30.16,NE,50,0.0,0.0,83,0.00,CLR,,0.01,WeatherDisplay:10.37,2013-02-07 02:59:00,
2013-02-06 19:04:00,49.1,44.5,30.16,NE,50,0.0,0.0,84,0.00,CLR,,0.01,WeatherDisplay:10.37,2013-02-07 03:04:00,
2013-02-06 19:09:00,48.8,44.2,30.16,NE,50,0.0,0.0,84,0.00,CLR,,0.01,WeatherDisplay:10.37,2013-02-07 03:09:00,
2013-02-06 19:14:00,48.6,44.0,30.17,NE,50,0.0,0.0,84,0.00,CLR,,0.01,WeatherDisplay:10.37,2013-02-07 03:14:00,
2013-02-06 19:19:00,48.4,44.1,30.17,NE,50,0.0,0.0,85,0.00,CLR,,0.01,WeatherDisplay:10.37,2013-02-07 03:19:00,
2013-02-06 19:24:00,48.2,43.9,30.17,NE,50,0.0,0.0,85,0.00,CLR,,0.01,WeatherDisplay:10.37,2013-02-07 03:24:00,
2013-02-06 19:29:00,48.0,43.7,30.17,NE,50,0.0,0.0,85,0.00,CLR,,0.01,WeatherDisplay:10.37,2013-02-07 03:29:00,
2013-02-06 19:34:00,47.8,43.5,30.17,NE,50,0.0,0.0,85,0.00,CLR,,0.01,WeatherDisplay:10.37,2013-02-07 03:34:00,
2013-02-06 19:39:00,47.5,43.5,30.17,NE,50,0.0,0.0,86,0.00,CLR,,0.01,WeatherDisplay:10.37,2013-02-07 03:39:00,
2013-02-06 19:44:00,47.3,43.3,30.17,NE,50,0.0,0.0,86,0.00,CLR,,0.01,WeatherDisplay:10.37,2013-02-07 03:44:00,
2013-02-06 19:49:00,47.1,43.1,30.17,NE,50,0.0,0.0,86,0.00,CLR,,0.01,WeatherDisplay:10.37,2013-02-07 03:49:00,
2013-02-06 19:54:00,46.9,42.9,30.17,NE,50,0.0,0.0,86,0.00,CLR,,0.01,WeatherDisplay:10.37,2013-02-07 03:54:00,
2013-02-06 19:59:00,46.8,43.1,30.17,NE,50,0.0,0.0,87,0.00,CLR,,0.01,WeatherDisplay:10.37,2013-02-07 03:59:00,
2013-02-06 20:04:00,46.6,42.9,30.18,NE,50,0.0,0.0,87,0.00,CLR,,0.01,WeatherDisplay:10.37,2013-02-07 04:04:00,
2013-02-06 20:09:00,46.5,42.8,30.18,NE,50,0.0,0.0,87,0.00,CLR,,0.01,WeatherDisplay:10.37,2013-02-07 04:09:00,
2013-02-06 20:14:00,46.3,42.6,30.18,NE,50,0.0,0.0,87,0.00,CLR,,0.01,WeatherDisplay:10.37,2013-02-07 04:14:00,
2013-02-06 20:19:00,46.2,42.5,30.18,NE,50,0.0,0.0,87,0.00,CLR,,0.01,WeatherDisplay:10.37,2013-02-07 04:19:00,
2013-02-06 20:24:00,46.0,42.3,30.18,NE,50,0.0,0.0,87,0.00,CLR,,0.01,WeatherDisplay:10.37,2013-02-07 04:24:00,
2013-02-06 20:29:00,45.8,42.4,30.18,NE,50,0.0,0.0,88,0.00,CLR,,0.01,WeatherDisplay:10.37,2013-02-07 04:29:00,
2013-02-06 20:34:00,45.7,42.3,30.18,NE,50,0.0,0.0,88,0.00,CLR,,0.01,WeatherDisplay:10.37,2013-02-07 04:34:00,
2013-02-06 20:39:00,45.5,42.1,30.18,NE,50,0.0,0.0,88,0.00,CLR,,0.01,WeatherDisplay:10.37,2013-02-07 04:39:00,
2013-02-06 20:44:00,45.4,42.0,30.18,NE,50,0.0,0.0,88,0.00,CLR,,0.01,WeatherDisplay:10.37,2013-02-07 04:44:00,
2013-02-06 20:49:00,45.3,41.9,30.19,NE,50,0.0,0.0,88,0.00,CLR,,0.01,WeatherDisplay:10.37,2013-02-07 04:49:00,
2013-02-06 20:54:00,45.2,41.8,30.19,NE,50,0.0,0.0,88,0.00,CLR,,0.01,WeatherDisplay:10.37,2013-02-07 04:54:00,
2013-02-06 20:59:00,45.1,42.0,30.19,NE,50,0.0,0.0,89,0.00,CLR,,0.01,WeatherDisplay:10.37,2013-02-07 04:59:00,
2013-02-06 21:00:00,45.1,42.0,30.19,NE,50,0.0,0.0,89,0.00,CLR,,0.01,WeatherDisplay:10.37,2013-02-07 05:00:00,
2013-02-06 21:01:00,45.1,42.0,30.19,NE,50,0.0,0.0,89,0.00,CLR,,0.01,WeatherDisplay:10.37,2013-02-07 05:01:00,
2013-02-06 21:06:00,45.0,41.9,30.19,NE,50,0.0,0.0,89,0.00,CLR,,0.01,WeatherDisplay:10.37,2013-02-07 05:06:00,
2013-02-06 21:11:00,44.9,41.8,30.19,NE,50,0.0,0.0,89,0.00,CLR,,0.01,WeatherDisplay:10.37,2013-02-07 05:11:00,
2013-02-06 21:16:00,44.9,41.8,30.19,NE,50,0.0,0.0,89,0.00,CLR,,0.01,WeatherDisplay:10.37,2013-02-07 05:16:00,
2013-02-06 21:21:00,44.9,42.1,30.19,NE,50,0.0,0.0,90,0.00,CLR,,0.01,WeatherDisplay:10.37,2013-02-07 05:21:00,
2013-02-06 21:26:00,45.0,42.2,30.19,NE,50,0.0,0.0,90,0.00,CLR,,0.01,WeatherDisplay:10.37,2013-02-07 05:26:00,
2013-02-06 21:31:00,45.2,42.4,30.19,NNE,19,1.1,0.0,90,0.00,CLR,,0.01,WeatherDisplay:10.37,2013-02-07 05:31:00,
2013-02-06 21:36:00,45.2,42.4,30.19,NNE,19,0.0,0.0,90,0.00,CLR,,0.01,WeatherDisplay:10.37,2013-02-07 05:36:00,
2013-02-06 21:41:00,45.3,42.5,30.20,NNE,19,0.0,0.0,90,0.00,CLR,,0.01,WeatherDisplay:10.37,2013-02-07 05:41:00,
2013-02-06 21:46:00,45.3,42.5,30.19,NNE,19,0.0,0.0,90,0.00,CLR,,0.01,WeatherDisplay:10.37,2013-02-07 05:46:00,
2013-02-06 21:51:00,45.3,42.5,30.19,NNE,19,0.0,0.0,90,0.00,CLR,,0.01,WeatherDisplay:10.37,2013-02-07 05:51:00,
2013-02-06 21:56:00,45.4,42.9,30.19,NNE,19,0.0,0.0,91,0.00,CLR,,0.01,WeatherDisplay:10.37,2013-02-07 05:56:00,
2013-02-06 22:01:00,45.3,42.5,30.19,NNE,19,0.0,0.0,90,0.00,CLR,,0.01,WeatherDisplay:10.37,2013-02-07 06:01:00,
2013-02-06 22:06:00,45.2,42.4,30.19,NNE,19,0.0,0.0,90,0.00,CLR,,0.01,WeatherDisplay:10.37,2013-02-07 06:06:00,
2013-02-06 22:11:00,45.1,42.3,30.19,NNE,19,0.0,0.0,90,0.00,CLR,,0.01,WeatherDisplay:10.37,2013-02-07 06:11:00,
2013-02-06 22:16:00,45.0,42.2,30.19,NNE,19,0.0,0.0,90,0.00,CLR,,0.01,WeatherDisplay:10.37,2013-02-07 06:16:00,
2013-02-06 22:21:00,44.8,42.0,30.19,NNE,19,0.0,0.0,90,0.00,CLR,,0.01,WeatherDisplay:10.37,2013-02-07 06:21:00,
2013-02-06 22:26:00,44.7,41.9,30.20,NNE,19,0.0,0.0,90,0.00,CLR,,0.01,WeatherDisplay:10.37,2013-02-07 06:26:00,
2013-02-06 22:31:00,44.5,41.7,30.19,NNE,19,0.0,0.0,90,0.00,CLR,,0.01,WeatherDisplay:10.37,2013-02-07 06:31:00,
2013-02-06 22:36:00,44.4,41.6,30.20,NNE,19,0.0,0.0,90,0.00,CLR,,0.01,WeatherDisplay:10.37,2013-02-07 06:36:00,
2013-02-06 22:41:00,44.2,41.4,30.19,NNE,19,0.0,0.0,90,0.00,CLR,,0.01,WeatherDisplay:10.37,2013-02-07 06:41:00,
2013-02-06 22:46:00,44.1,41.3,30.20,NNE,19,0.0,0.0,90,0.00,CLR,,0.01,WeatherDisplay:10.37,2013-02-07 06:46:00,
2013-02-06 22:51:00,43.9,41.1,30.19,NNE,19,0.0,0.0,90,0.00,CLR,,0.01,WeatherDisplay:10.37,2013-02-07 06:51:00,
2013-02-06 22:56:00,43.8,41.0,30.20,NNE,19,0.0,0.0,90,0.00,CLR,,0.01,WeatherDisplay:10.37,2013-02-07 06:56:00,
2013-02-06 23:01:00,43.6,40.8,30.20,NNE,19,0.0,0.0,90,0.00,CLR,,0.01,WeatherDisplay:10.37,2013-02-07 07:01:00,
2013-02-06 23:06:00,43.4,40.6,30.20,NNE,19,0.0,0.0,90,0.00,CLR,,0.01,WeatherDisplay:10.37,2013-02-07 07:06:00,
2013-02-06 23:11:00,43.2,40.2,30.20,NNE,19,0.0,0.0,89,0.00,CLR,,0.01,WeatherDisplay:10.37,2013-02-07 07:11:00,
2013-02-06 23:16:00,43.0,40.0,30.20,NNE,19,0.0,0.0,89,0.00,CLR,,0.01,WeatherDisplay:10.37,2013-02-07 07:16:00,
2013-02-06 23:21:00,42.8,39.8,30.20,NNE,19,0.0,0.0,89,0.00,CLR,,0.01,WeatherDisplay:10.37,2013-02-07 07:21:00,
2013-02-06 23:26:00,42.6,39.6,30.20,NNE,19,0.0,0.0,89,0.00,CLR,,0.01,WeatherDisplay:10.37,2013-02-07 07:26:00,
2013-02-06 23:31:00,42.4,39.4,30.21,NNE,19,0.0,0.0,89,0.00,CLR,,0.01,WeatherDisplay:10.37,2013-02-07 07:31:00,
2013-02-06 23:36:00,42.2,39.2,30.21,NNE,19,0.0,0.0,89,0.00,CLR,,0.01,WeatherDisplay:10.37,2013-02-07 07:36:00,
2013-02-06 23:41:00,42.0,39.0,30.21,NNE,19,0.0,0.0,89,0.00,CLR,,0.01,WeatherDisplay:10.37,2013-02-07 07:41:00,
2013-02-06 23:46:00,41.7,38.7,30.21,NNE,19,0.0,0.0,89,0.00,CLR,,0.01,WeatherDisplay:10.37,2013-02-07 07:46:00,
2013-02-06 23:51:00,41.5,38.5,30.21,NNE,19,0.0,0.0,89,0.00,CLR,,0.01,WeatherDisplay:10.37,2013-02-07 07:51:00,
2013-02-06 23:56:00,41.3,38.3,30.21,NNE,19,0.0,0.0,89,0.00,CLR,,0.01,WeatherDisplay:10.37,2013-02-07 07:56:00,